Create Custom Reports and Graphics: Custom Report

Bell Hill-West

Current Conditions

8/12/20 7:00 PM (-07:00)
Updated Every 15 Minutes
Temp 87.2 °F   5.0
RH 18 %   23
Dew Pt 38.9 °F   17.3
Wet Bulb 57.4 °F   7.1
Wind Dir WSW | 239 °
Wind Spd 1.1 mph   5.6
Wind Gust 9.5 mph   3.4
Solar Rad 211 W/m2   8
BatVolt 13.0 V   0.1

Today & Yesterday

Bell Hill-West

8/12/20 7:00 PM (-07:00)
Updated Every 15 Minutes
Daily Max Temp 94.3 °F   4.8
Max Temp Time 1428
Daily Min Temp 53.2 °F   4.7
Min Temp Time 0606
Daily Max Wind 14.2 mph   4.0
Max Wind Time 1726
Max Wind Dir S | 188 °
Daily Rain 0.00 In
Daily ETo 0.233 in   0.005
Max Temp Yest 89.5 °F
Min Temp Yest 58.0 °F
Max Wind Yest 18.2 mph
Rain Yest 0.00 In
ETo Yest 0.25 In

Last 48 Hours

Bell Hill-West

Hourly Data | America/Los_Angeles
as of 8/12/20 7:20 PM PDT
Date & Time Temp (°F) RH (%) Dew Pt (°F) Wet Bulb (°F) Wind Dir (°) Wind Spd (mph) Wind Gust (mph) Wind Gst Dir (°) Solar Rad (W/m2) Latest Rain (In) Daily Rain (In) Daily Min Temp (°F) Daily Max Temp (°F) Daily ETo (in)
8/12/20 - 1900 88.4 21 44.0 59.6 SW | 229 2.9 13.2 SW | 224 290 0.00 0.00 53.2 94.3 0.241
8/12/20 - 1800 91.1 23 48.7 62.0 SW | 221 4.2 14.2 S | 188 495 0.00 0.00 53.2 94.3 0.233
8/12/20 - 1700 93.1 17 42.0 59.7 SW | 215 2.6 13.2 S | 191 694 0.00 0.00 53.2 94.3 0.216
8/12/20 - 1600 93.5 10 29.4 56.0 SSW | 197 3.0 13.8 SSW | 206 866 0.00 0.00 53.2 94.3 0.194
8/12/20 - 1500 93.6 10 29.3 56.0 SSW | 193 4.3 13.2 S | 178 981 0.00 0.00 53.2 94.3 0.167
8/12/20 - 1400 92.6 14 35.5 57.5 SW | 219 1.7 12.8 SSW | 195 1,027 0.00 0.00 53.2 93.9 0.135
8/12/20 - 1300 88.5 23 46.0 60.5 N | 353 1.9 9.5 NNE | 18 1,001 0.00 0.00 53.2 91.7 0.105
8/12/20 - 1200 83.4 32 50.5 61.6 N | 1 2.9 9.8 N | 6 926 0.00 0.00 53.2 86.3 0.075
8/12/20 - 1100 79.0 40 52.4 61.7 NNE | 12 1.5 6.8 N | 1 793 0.00 0.00 53.2 81.2 0.048
8/12/20 - 1000 74.4 48 53.4 61.3 N | 6 0.8 5.8 NE | 40 611 0.00 0.00 53.2 76.9 0.026
8/12/20 - 0900 70.0 53 52.0 59.4 NE | 35 0.1 3.4 NE | 51 403 0.00 0.00 53.2 72.6 0.011
8/12/20 - 0800 59.3 72 50.1 54.7 N | 0 0.0 0.0 S | 190 186 0.00 0.00 53.2 64.8 0.002
8/12/20 - 0700 53.7 85 49.3 52.0 S | 186 0.8 3.8 SSE | 167 9 0.00 0.00 53.2 61.7 0.000
8/12/20 - 0600 54.5 83 49.5 52.5 S | 177 0.1 3.1 S | 170 0 0.00 0.00 53.8 61.7 0.000
8/12/20 - 0500 55.9 80 50.0 53.4 S | 183 0.5 3.8 S | 181 0 0.00 0.00 55.0 61.7 0.000
8/12/20 - 0400 57.2 78 50.6 54.3 S | 184 1.2 4.1 S | 169 0 0.00 0.00 56.6 61.7 0.000
8/12/20 - 0300 58.9 76 51.5 55.5 S | 186 0.9 4.4 S | 179 0 0.00 0.00 58.0 61.7 0.000
8/12/20 - 0200 60.5 75 52.5 56.7 S | 179 0.5 3.8 S | 169 0 0.00 0.00 59.3 61.7 0.000
8/12/20 - 0100 63.5 69 53.2 58.2 S | 182 0.6 3.1 SSE | 161 0 0.00 0.00 58.0 89.5 0.251
8/12/20 - 0000 65.7 66 54.0 59.3 S | 173 0.6 4.8 S | 171 0 0.00 0.00 58.0 89.5 0.251
8/11/20 - 2300 69.3 59 54.3 60.6 SSW | 205 1.3 8.1 SSW | 207 0 0.00 0.00 58.0 89.5 0.251
8/11/20 - 2200 73.8 50 54.0 61.5 S | 187 1.5 11.5 S | 187 0 0.00 0.00 58.0 89.5 0.251
8/11/20 - 2100 76.6 48 55.2 62.9 SSE | 163 2.2 9.8 SSE | 157 2 0.00 0.00 58.0 89.5 0.251
8/11/20 - 2000 80.7 43 56.0 64.1 SW | 215 2.7 9.1 S | 190 83 0.00 0.00 58.0 89.5 0.251
8/11/20 - 1900 83.5 39 56.1 64.7 SW | 231 6.8 13.5 SSW | 209 277 0.00 0.00 58.0 89.5 0.249
8/11/20 - 1800 86.8 34 55.2 64.7 SW | 235 3.6 18.2 W | 271 483 0.00 0.00 58.0 89.5 0.238
8/11/20 - 1700 88.4 32 54.7 64.6 SW | 230 3.8 13.5 W | 262 677 0.00 0.00 58.0 89.5 0.223
8/11/20 - 1600 88.7 28 51.5 63.0 WSW | 256 2.9 12.8 NNE | 13 840 0.00 0.00 58.0 89.5 0.202
8/11/20 - 1500 88.4 26 49.6 62.0 SW | 232 7.6 17.2 WSW | 244 959 0.00 0.00 58.0 89.2 0.176
8/11/20 - 1400 88.0 22 44.4 59.6 SW | 225 7.8 16.2 SSW | 204 1,014 0.00 0.00 58.0 88.5 0.144
8/11/20 - 1300 86.0 24 45.6 59.8 WSW | 250 8.0 15.5 W | 276 991 0.00 0.00 58.0 87.4 0.110
8/11/20 - 1200 85.1 26 46.3 59.9 WSW | 258 6.8 14.2 W | 267 906 0.00 0.00 58.0 85.7 0.077
8/11/20 - 1100 83.7 29 47.9 60.3 W | 274 4.7 11.5 W | 275 767 0.00 0.00 58.0 84.5 0.048
8/11/20 - 1000 81.1 29 46.2 59.0 NW | 315 0.6 8.1 WNW | 299 585 0.00 0.00 58.0 83.4 0.024
8/11/20 - 0900 73.9 36 45.3 56.8 N | 0 0.0 0.0 SSW | 198 378 0.00 0.00 58.0 78.2 0.009
8/11/20 - 0800 63.2 53 45.9 53.8 N | 0 0.0 0.0 S | 176 152 0.00 0.00 58.0 68.3 0.001
8/11/20 - 0700 58.4 62 45.3 51.7 N | 0 0.0 0.0 SW | 218 11 0.00 0.00 58.0 68.0 0.000
8/11/20 - 0600 59.4 59 45.2 52.0 SSE | 167 0.0 2.7 SSE | 167 0 0.00 0.00 58.2 68.0 0.000
8/11/20 - 0500 61.3 54 44.8 52.6 S | 191 0.2 3.8 SSW | 210 0 0.00 0.00 60.2 68.0 0.000
8/11/20 - 0400 62.6 52 44.8 53.0 N | 0 0.0 0.0 SW | 218 0 0.00 0.00 61.2 68.0 0.000
8/11/20 - 0300 64.7 51 46.1 54.5 S | 174 0.5 3.8 S | 171 0 0.00 0.00 63.3 68.0 0.000
8/11/20 - 0200 66.3 49 46.6 55.3 S | 191 0.6 4.8 S | 190 0 0.00 0.00 65.1 68.0 0.000
8/11/20 - 0100 71.9 40 46.1 56.7 S | 174 0.8 5.4 S | 178 0 0.00 0.00 61.5 98.1 0.237
8/11/20 - 0000 74.8 35 45.6 57.2 SSE | 164 0.8 6.1 S | 169 0 0.00 0.00 61.5 98.1 0.237
8/10/20 - 2300 76.8 33 45.7 57.8 SSW | 213 1.3 7.8 SW | 215 0 0.00 0.00 61.5 98.1 0.237
8/10/20 - 2200 77.1 35 47.4 58.7 SSW | 194 0.0 4.4 SSW | 197 0 0.00 0.00 61.5 98.1 0.237
8/10/20 - 2100 81.8 31 48.0 60.0 N | 0 0.0 0.0 E | 87 2 0.00 0.00 61.5 98.1 0.237
8/10/20 - 2000 86.4 26 47.8 60.8 SW | 217 0.6 10.5 SSE | 168 80 0.00 0.00 61.5 98.1 0.237
8/10/20 - 1900 90.5 24 48.3 61.7 SW | 226 1.3 13.2 SW | 220 267 0.00 0.00 61.5 98.1 0.237
Max 93.6 85 56.1 64.7 - 8.0 18.2 - 1,027 0.00 0.00 65.1 98.1 0.251
Avg 75.6 43 48.0 58.4 - 2.0 7.9 - 342 0.00 - - - -
Min 53.7 10 29.3 51.7 - 0.0 0.0 - 0 0.00 0.00 53.2 61.7 0.000
Total - - - - - - - - - 0.00 - - - -

Last 30 Days

Bell Hill-West

Daily Data | America/Los_Angeles
as of 8/12/20 7:20 PM PDT
Date Daily Max Temp (°F) Max Temp Time Daily Min Temp (°F) Min Temp Time Daily Rain (In) Monthly Rain (In) Seasonal Rainfall (In) Wind Spd (mph) Daily Max Wind (mph) Max Wind Time Max Wind Dir (°) Daily ETo (in) 7 Day ETo (in) Daily Solar Rad (Cal/cm2) Dew Pt (°F) Max RH (%) Min RH (%) Hrs 70-85F (hrs) Hrs > 95F (hrs) Powdery Mildew Stress (pts) GDDs (DL) GDDs (Mx/Mn) Seas GDDs (DL) Seasonal GDDs (Mx/Mn) Hrs <= 32F (hrs) Hrs <= 28F (hrs) Chilling <=45F (hrs) Chill Hrs 32-45F (hrs) Utah Chilling (Units) Chill Portions Degree Hrs (hrs) Bat Volt Min Day (V)
8/11/20 89.5 1600 58.0 0604 0.00 0.00 0.00 2.6 18.2 1730 W | 271 0.251 1.68 699 49.5 74 19 5.00 0.00 0 25.0 23.7 2,213 2,104 0.0 0.0 0.0 0.0 -17.0 - 261.0 12.3
8/10/20 98.1 1446 61.5 0631 0.00 0.00 0.00 1.3 16.2 1617 SSW | 208 0.237 1.69 680 49.7 64 18 5.00 4.37 0 30.0 29.8 2,188 2,081 0.0 0.0 0.0 0.0 -22.0 - 365.4 12.3
8/9/20 98.7 1458 59.6 0634 0.00 0.00 0.00 1.3 17.8 1644 SSE | 165 0.242 1.73 685 51.9 67 21 3.81 4.47 0 29.2 29.1 2,158 2,051 0.0 0.0 0.0 0.0 -21.5 - 358.3 12.2
8/8/20 95.1 1439 58.4 0625 0.00 0.00 0.00 1.8 16.5 1730 S | 170 0.249 1.76 689 53.3 78 22 3.84 0.02 0 27.4 26.8 2,129 2,022 0.0 0.0 0.0 0.0 -17.5 - 317.9 12.2
8/7/20 91.7 1557 55.6 0638 0.00 0.00 0.00 1.9 16.8 1615 S | 169 0.236 1.78 670 52.7 86 26 4.99 0.00 0 24.1 23.7 2,101 1,995 0.0 0.0 0.0 0.0 -17.5 - 269.1 12.3
8/6/20 86.0 1504 54.0 0632 0.00 0.00 0.00 3.9 24.2 1222 W | 272 0.224 1.81 706 53.1 90 28 5.48 0.00 10 19.5 20.0 2,077 1,971 0.0 0.0 0.0 0.0 -16.0 - 173.3 12.3
8/5/20 84.0 1527 55.4 0651 0.00 0.00 0.00 2.8 16.2 1747 SW | 232 0.236 1.85 723 54.1 90 34 9.24 0.00 20 18.2 19.7 1,923 344 0.0 0.0 0.0 0.0 -14.5 0 132.7 12.2
8/4/20 92.1 1440 55.7 0556 0.00 0.00 0.00 2.7 16.5 1504 S | 186 0.267 1.88 725 51.9 79 21 3.31 0.00 0 23.4 23.9 1,923 344 0.0 0.0 0.0 0.0 -16.5 0 248.0 12.2
8/3/20 91.3 1340 55.5 0612 0.00 0.00 0.00 2.7 15.8 1517 WSW | 239 0.273 1.88 739 47.2 69 18 3.87 0.00 0 23.9 23.4 1,923 344 0.0 0.0 0.0 0.0 -16.5 0 259.4 12.1
8/2/20 94.8 1411 53.9 0624 0.00 0.00 0.00 3.5 17.8 1520 SW | 217 0.278 1.87 735 44.5 68 14 3.92 0.00 0 24.1 24.4 1,923 344 0.0 0.0 0.0 0.0 -17.0 0 271.6 12.2
8/1/20 94.7 1556 52.1 0605 0.00 0.00 0.00 2.3 14.8 1703 WSW | 254 0.268 1.85 737 42.8 74 12 2.83 0.00 0 23.4 23.4 1,923 344 0.0 0.0 0.0 0.0 -16.0 0 274.5 12.3
7/31/20 92.3 1427 50.3 0645 0.00 0.00 0.00 1.7 14.2 1414 SW | 234 0.268 1.85 767 39.8 63 9 3.00 0.00 0 21.9 21.3 1,923 344 0.0 0.0 0.0 0.0 0.0 0 249.7 12.1
7/30/20 94.3 1622 53.0 0631 0.00 0.00 0.00 1.2 21.5 1427 S | 190 0.262 1.85 767 41.8 71 6 3.01 0.00 0 24.3 23.7 395 344 0.0 0.0 0.0 0.0 0.0 0 283.1 12.2
7/29/20 93.5 1607 53.6 0609 0.00 0.00 0.00 1.5 15.5 1424 S | 184 0.267 1.84 765 43.4 68 10 2.57 0.00 0 25.1 23.6 395 344 0.0 0.0 0.0 0.0 -16.5 0 293.7 12.1
7/28/20 97.1 1459 56.5 0623 0.00 0.00 0.00 1.4 16.8 1647 SSE | 158 0.265 1.83 748 43.2 62 9 2.82 3.99 0 27.5 26.8 395 344 0.0 0.0 0.0 0.0 -17.0 0 337.8 12.2
7/27/20 96.4 1446 57.8 0512 0.00 0.00 0.00 1.4 16.5 1726 S | 169 0.259 1.82 734 44.3 61 12 2.54 3.08 0 28.2 27.1 395 344 0.0 0.0 0.0 0.0 -17.5 0 342.8 12.1
7/26/20 95.7 1309 56.6 0601 0.00 0.00 0.00 1.6 16.8 1600 SSE | 165 0.260 1.82 731 47.5 73 14 2.87 0.21 0 26.7 26.2 395 344 0.0 0.0 0.0 0.0 -17.5 0 315.0 12.3
7/25/20 94.6 1343 55.1 0603 0.00 0.00 0.00 1.8 17.2 1551 SSW | 201 0.267 1.85 742 50.5 80 18 2.89 0.00 0 25.4 24.8 395 344 0.0 0.0 0.0 0.0 -17.0 0 296.6 12.2
7/24/20 89.9 1621 57.0 0602 0.00 0.00 0.00 2.1 18.2 1442 S | 173 0.267 1.86 749 49.1 74 19 3.72 0.00 0 24.3 23.4 395 344 0.0 0.0 0.0 0.0 -17.0 0 252.8 12.2
7/23/20 92.1 1249 55.4 0602 0.00 0.00 0.00 1.7 18.2 1545 SW | 216 0.257 1.87 739 50.2 88 12 5.49 0.00 0 25.1 23.7 395 344 0.0 0.0 0.0 0.0 -17.5 0 279.2 12.3
7/22/20 88.4 1209 59.9 0606 0.00 0.00 0.00 1.9 17.8 1529 SSE | 168 0.252 1.88 738 54.7 80 24 5.30 0.00 0 24.3 24.2 395 344 0.0 0.0 0.0 0.0 -22.0 0 235.5 12.2
7/21/20 94.3 1224 60.0 0611 0.00 0.00 0.00 1.9 19.5 1542 S | 185 0.256 1.90 730 52.7 71 22 3.29 0.00 0 26.8 27.2 395 344 0.0 0.0 0.0 0.0 -21.0 0 298.0 12.2
7/20/20 92.1 1409 57.4 0610 0.00 0.00 0.00 1.9 16.5 1531 SW | 219 0.263 1.92 737 51.5 74 24 3.51 0.00 0 26.3 24.8 395 344 0.0 0.0 0.0 0.0 -18.0 0 300.8 12.2
7/19/20 95.0 1221 57.2 0559 0.00 0.00 0.00 2.9 17.5 1606 S | 178 0.291 1.94 762 51.2 69 18 3.71 0.00 0 27.2 26.1 395 344 0.0 0.0 0.0 0.0 -17.5 0 319.5 12.2
7/18/20 94.8 1339 59.5 0556 0.00 0.00 0.00 2.2 15.2 1521 S | 176 0.277 1.93 754 52.0 85 12 3.11 0.00 0 27.6 27.1 395 344 0.0 0.0 0.0 0.0 -18.5 0 322.2 12.4
7/17/20 91.8 1602 58.9 0616 0.00 0.00 0.00 2.4 16.8 1641 S | 172 0.271 1.92 755 55.5 81 28 4.46 0.00 0 25.9 25.4 395 344 0.0 0.0 0.0 0.0 -18.0 0 285.4 12.4
7/16/20 93.1 1235 58.3 0557 0.00 0.00 0.00 2.4 17.2 1647 S | 184 0.274 1.94 754 54.5 78 27 3.82 0.00 0 26.2 25.7 395 344 0.0 0.0 0.0 0.0 -17.5 0 290.8 12.4
7/15/20 97.0 1335 57.8 0601 0.00 0.00 0.00 1.5 17.5 1521 SW | 236 0.267 1.95 754 52.7 78 17 4.05 2.75 0 28.1 27.4 395 344 0.0 0.0 0.0 0.0 -18.0 0 340.1 12.2
7/14/20 94.3 1454 59.7 0552 0.00 0.00 0.00 2.3 18.5 1719 SW | 223 0.280 1.95 756 52.8 76 17 4.31 0.00 0 27.7 27.0 395 344 0.0 0.0 0.0 0.0 -21.5 0 320.1 12.2
7/13/20 94.6 1530 56.8 0600 0.00 0.00 0.00 1.9 16.8 1653 S | 189 0.275 1.93 766 51.9 77 19 3.64 0.00 0 26.5 25.7 395 344 0.0 0.0 0.0 0.0 -18.0 0 306.8 12.4
Max 98.7 - 61.5 - 0.00 0.00 - 3.9 24.2 - - 0.291 - 767 55.5 90 34 9.24 4.47 20 30.0 29.8 - - 0.0 0.0 0.0 0.0 0.0 0 365.4 12.4
Avg - - - - - 0.00 - 2.1 - - - - - - 49.7 - - 3.98 0.63 - 25.4 25.0 - - 0.0 0.0 0.0 0.0 -16.7 0 - -
Min 84.0 - 50.3 - 0.00 0.00 - 1.2 14.2 - - 0.224 - 670 39.8 61 6 2.54 0.00 0 18.2 19.7 - - 0.0 0.0 0.0 0.0 -22.0 0 132.7 12.1
Total - - - - - - - - - - - - - - - - - 119.38 18.90 - 763.1 749.0 - - 0.0 0.0 0.0 0.0 -502.0 - - -

Bell Hill-West Climate Summary

Current Yeaer

Current Year | Showing 1/1/20 - 8/11/20
as of 8/12/20 7:20 PM PDT
Temperature (°F) Precip (in) Days
Month Days Avg Max Avg Min Max Max Min Min Total Daily Min Temp < 28 Daily Min Temp < 32 Daily Max Temp > 90 Daily Max Temp > 100 Daily Rain > 0.01 Daily Rain > 0.1
Jan 2020 31 55 34.1 69.6 25.8 2.38 3 13 0 0 13 6
Feb 2020 29 66.1 30.9 76.7 23.5 0 4 17 0 0 0 0
Mar 2020 31 59.8 34 80.6 26.6 1.44 2 11 0 0 9 4
Apr 2020 30 70.4 41.2 85.7 27.8 0.84 1 4 0 0 4 3
May 2020 31 76.6 45 95.7 32.9 1.22 0 0 5 0 6 4
Jun 2020 30 85.9 51.7 102.7 36.9 0 0 0 12 1 0 0
Jul 2020 31 92.7 54.5 98.2 45.7 0 0 0 25 0 0 0
Aug 2020 11 92.4 56.3 98.7 52.1 0 0 0 8 0 0 0
Total 224 - - - - 5.88 10 45 50 1 32 17
Average 28 74.8 43.5 - - 0.74 1.2 5.6 6.2 0.1 4 2.1
Maximum 31 92.7 56.3 102.7 - 2.38 4 17 25 1 13 6
Minimum 11 55 30.9 - 23.5 0 0 0 0 0 0 0

Bell Hill-West Climate Summary

Last Year

Last Year | Showing 1/1/19 - 12/31/19
as of 8/12/20 7:20 PM PDT
Temperature (°F) Precip (in) Days
Month Days Avg Max Avg Min Max Max Min Min Total Daily Min Temp < 28 Daily Min Temp < 32 Daily Max Temp > 90 Daily Max Temp > 100 Daily Rain > 0.01 Daily Rain > 0.1
Jan 2019 31 56.8 36.2 71.5 24.5 10.09 3 8 0 0 12 11
Feb 2019 28 49.5 33.4 56.5 21.5 17.41 10 14 0 0 17 14
Mar 2019 31 58.8 36.4 74.6 26.8 4.4 1 6 0 0 12 10
Apr 2019 30 70.5 44 88.6 33.2 0.38 0 0 0 0 4 1
May 2019 31 72.1 44.7 85.2 36.4 2.59 0 0 0 0 6 5
Jun 2019 30 87.1 51.7 98.2 41.6 0 0 0 10 0 0 0
Jul 2019 31 89.5 54 100 47.1 0 0 0 14 0 0 0
Aug 2019 31 91.4 55.5 102 49.6 0 0 0 21 1 0 0
Sep 2019 30 82.5 47.9 97.2 34.3 0.1 0 0 9 0 2 0
Oct 2019 31 76.3 36.4 88.5 27.4 0.01 3 5 0 0 0 0
Nov 2019 30 68.5 34 81.6 23.2 1.55 4 11 0 0 3 3
Dec 2019 31 52.6 37.2 61.6 24.2 6.81 3 7 0 0 13 11
Total 365 - - - - 43.34 24 51 54 1 69 55
Average 30.4 71.3 42.6 - - 3.61 2 4.2 4.5 0.1 5.8 4.6
Maximum 31 91.4 55.5 102 - 17.41 10 14 21 1 17 14
Minimum 28 49.5 33.4 - 21.5 0 0 0 0 0 0 0
Calm: 22.9%
Calm: 23.6%